createdAt,value
2022-11-08T15:31:59.909Z,14.42
2022-11-08T15:34:40.993Z,14.30
2022-11-08T15:37:42.938Z,14.39
2022-11-08T15:40:24.598Z,14.12
2022-11-08T15:42:52.889Z,13.99
2022-11-08T15:45:25.760Z,13.67
2022-11-08T15:47:54.883Z,13.66
2022-11-08T15:50:30.540Z,13.56
2022-11-08T15:53:00.811Z,13.73
2022-11-08T15:55:51.991Z,13.46
2022-11-08T15:58:37.164Z,13.35
2022-11-08T16:01:06.408Z,13.33
2022-11-08T16:03:35.351Z,13.26
2022-11-08T16:06:02.551Z,13.13
2022-11-08T16:08:29.994Z,13.20
2022-11-08T16:11:01.631Z,13.12
2022-11-08T16:13:32.126Z,12.98
2022-11-08T16:16:00.556Z,13.04
2022-11-08T16:18:28.273Z,12.91
2022-11-08T16:20:55.696Z,12.83
2022-11-08T16:23:22.972Z,12.83
2022-11-08T16:25:53.514Z,12.68
2022-11-08T16:28:34.428Z,12.69
2022-11-08T16:31:03.074Z,12.51
2022-11-08T16:33:32.417Z,12.63
2022-11-08T16:36:03.850Z,12.52
2022-11-08T16:38:36.329Z,12.45
2022-11-08T16:41:05.284Z,12.43
2022-11-08T16:43:33.815Z,12.40
2022-11-08T16:46:07.168Z,12.35
2022-11-08T16:48:39.646Z,12.31
2022-11-08T16:51:13.997Z,12.15
2022-11-08T16:53:41.380Z,12.27
2022-11-08T16:56:08.997Z,12.25
2022-11-08T16:58:36.419Z,12.13
2022-11-08T17:01:10.292Z,12.21
2022-11-08T17:03:38.252Z,12.24
2022-11-08T17:06:05.825Z,12.12
2022-11-08T17:08:33.157Z,12.06
2022-11-08T17:11:01.025Z,11.99
2022-11-08T17:13:28.312Z,11.86
2022-11-08T17:15:55.909Z,11.97
2022-11-08T17:18:24.116Z,11.91
2022-11-08T17:20:52.463Z,11.90
2022-11-08T17:23:22.832Z,11.81
2022-11-08T17:25:50.201Z,11.93
2022-11-08T17:28:18.163Z,11.65
2022-11-08T17:30:45.623Z,11.64
2022-11-08T17:33:13.870Z,11.68
2022-11-08T17:35:44.349Z,11.58
2022-11-08T17:38:15.388Z,11.52
2022-11-08T17:40:42.885Z,11.53
2022-11-08T17:43:10.838Z,11.47
2022-11-08T17:45:38.344Z,11.50
2022-11-08T17:48:05.640Z,11.42
2022-11-08T17:50:33.084Z,11.36
2022-11-08T17:53:00.569Z,11.13
2022-11-08T17:55:28.235Z,11.11
2022-11-08T17:57:56.087Z,11.22
2022-11-08T18:00:23.701Z,11.09
2022-11-08T18:02:51.311Z,11.15
2022-11-08T18:05:18.394Z,10.77
2022-11-08T18:07:45.936Z,11.05
2022-11-08T18:10:14.765Z,10.98
2022-11-08T18:12:42.366Z,10.96
2022-11-08T18:15:10.347Z,10.74
2022-11-08T18:17:37.868Z,10.80
2022-11-08T18:20:06.332Z,10.81
2022-11-08T18:22:36.752Z,10.78
2022-11-08T18:25:05.208Z,10.74
2022-11-08T18:27:32.869Z,10.68
2022-11-08T18:30:03.005Z,10.77
2022-11-08T18:32:30.750Z,10.72
2022-11-08T18:34:58.002Z,10.67
2022-11-08T18:37:26.597Z,10.49
2022-11-08T18:39:54.325Z,10.42
2022-11-08T18:42:22.194Z,10.56
2022-11-08T18:44:49.659Z,10.49
2022-11-08T18:47:25.411Z,10.38
2022-11-08T18:49:56.357Z,10.50
2022-11-08T18:52:23.930Z,10.49
2022-11-08T18:54:51.938Z,10.29
2022-11-08T18:57:20.543Z,10.33
2022-11-08T18:59:48.506Z,10.41
2022-11-08T19:02:16.220Z,10.40
2022-11-08T19:04:43.342Z,10.26
2022-11-08T19:07:10.928Z,10.38
2022-11-08T19:09:40.166Z,10.38
2022-11-08T19:12:07.762Z,10.31
2022-11-08T19:14:37.262Z,10.42
2022-11-08T19:17:05.116Z,10.48
2022-11-08T19:19:32.763Z,10.46
2022-11-08T19:22:00.418Z,10.45
2022-11-08T19:24:31.174Z,10.50
2022-11-08T19:26:59.686Z,10.46
2022-11-08T19:29:30.196Z,10.41
2022-11-08T19:31:58.018Z,10.34
2022-11-08T19:34:25.354Z,10.51
2022-11-08T19:36:55.787Z,10.40
2022-11-08T19:39:25.294Z,10.49
2022-11-08T19:41:52.704Z,10.30
2022-11-08T19:44:20.524Z,10.36
2022-11-08T19:46:47.980Z,10.04
2022-11-08T19:49:16.001Z,10.05
2022-11-08T19:51:44.706Z,10.04
2022-11-08T19:54:14.230Z,9.95
2022-11-08T19:59:29.774Z,10.05
2022-11-08T20:01:57.202Z,10.01
2022-11-08T20:04:24.972Z,9.96
2022-11-08T20:06:52.473Z,9.89
2022-11-08T20:09:20.151Z,9.97
2022-11-08T20:11:47.788Z,9.92
2022-11-08T20:14:17.686Z,9.92
2022-11-08T20:16:53.211Z,10.00
2022-11-08T20:19:21.727Z,9.79
2022-11-08T20:21:49.831Z,9.86
2022-11-08T20:24:17.847Z,10.04
2022-11-08T20:26:45.931Z,10.05
2022-11-08T20:29:15.365Z,10.05
2022-11-08T20:31:43.178Z,10.03
2022-11-08T20:34:12.418Z,10.02
2022-11-08T20:36:43.128Z,10.05
2022-11-08T20:39:12.622Z,10.13
2022-11-08T20:41:41.933Z,10.12
2022-11-08T20:44:13.815Z,10.00
2022-11-08T20:46:41.846Z,10.03
2022-11-08T20:49:09.752Z,9.98
2022-11-08T20:51:37.837Z,10.01
2022-11-08T20:54:05.598Z,10.05
2022-11-08T20:56:33.178Z,10.02
2022-11-08T20:59:01.097Z,10.03
2022-11-08T21:01:31.158Z,10.03
2022-11-08T21:03:58.673Z,9.99
2022-11-08T21:06:27.825Z,9.99
2022-11-08T21:09:01.960Z,10.04
2022-11-08T21:11:34.960Z,9.96
2022-11-08T21:14:03.849Z,9.98
2022-11-08T21:16:42.406Z,9.95
2022-11-08T21:19:14.900Z,9.92
2022-11-08T21:21:46.655Z,9.77
2022-11-08T21:24:14.349Z,10.00
2022-11-08T21:26:44.373Z,9.98
2022-11-08T21:29:11.560Z,9.92
2022-11-08T21:31:38.772Z,9.99
2022-11-08T21:34:06.303Z,9.92
2022-11-08T21:36:34.304Z,9.84
2022-11-08T21:39:01.657Z,9.89
2022-11-08T21:41:28.883Z,9.96
2022-11-08T21:43:56.687Z,9.89
2022-11-08T21:46:27.442Z,9.83
2022-11-08T21:49:00.430Z,9.95
2022-11-08T21:51:29.682Z,9.88
2022-11-08T21:53:58.840Z,9.90
2022-11-08T21:56:29.656Z,9.84
2022-11-08T21:58:56.829Z,9.67
2022-11-08T22:01:29.910Z,9.79
2022-11-08T22:03:58.549Z,9.77
2022-11-08T22:06:25.806Z,9.87
2022-11-08T22:08:52.831Z,9.77
2022-11-08T22:11:19.818Z,9.90
2022-11-08T22:13:46.928Z,9.81
2022-11-08T22:16:13.884Z,9.87
2022-11-08T22:21:41.273Z,9.81
2022-11-08T22:24:22.694Z,9.78
2022-11-08T22:26:51.875Z,9.67
2022-11-08T22:29:19.426Z,9.69
2022-11-08T22:31:47.088Z,9.67
2022-11-08T22:34:14.282Z,9.58
2022-11-08T22:36:45.210Z,9.62
2022-11-08T22:39:20.623Z,9.66
2022-11-08T22:41:50.917Z,9.61
2022-11-08T22:44:18.899Z,9.58
2022-11-08T22:46:47.430Z,9.58
2022-11-08T22:49:15.454Z,9.68
2022-11-08T22:51:43.193Z,9.62
2022-11-08T22:54:10.685Z,9.54
2022-11-08T22:56:38.417Z,9.44
2022-11-08T22:59:05.464Z,9.60
2022-11-08T23:01:33.179Z,9.57
2022-11-08T23:04:00.630Z,9.57
2022-11-08T23:06:27.674Z,9.55
2022-11-08T23:08:54.755Z,9.45
2022-11-08T23:11:40.473Z,9.49
2022-11-08T23:14:32.433Z,9.52
2022-11-08T23:17:03.014Z,9.47
2022-11-08T23:19:48.542Z,9.47
2022-11-08T23:22:36.354Z,9.28
2022-11-08T23:25:04.725Z,9.37
2022-11-08T23:27:50.426Z,9.28
2022-11-08T23:30:37.267Z,9.43
2022-11-08T23:33:05.899Z,9.33
2022-11-08T23:35:33.187Z,9.34
2022-11-08T23:38:00.171Z,9.19
2022-11-08T23:40:45.808Z,9.34
2022-11-08T23:43:32.483Z,9.31
2022-11-08T23:46:09.711Z,9.25
2022-11-08T23:48:37.818Z,9.23
2022-11-08T23:51:05.837Z,9.20
2022-11-08T23:53:34.711Z,9.25
2022-11-08T23:56:01.692Z,9.24
2022-11-08T23:58:28.926Z,9.18
